Time;durP1;ratioP1;P1;durP2;ratioP2;P2;SDS_P1;SDS_P2;PMS_P1;PMS_P2;Temp;Humidity;BMP_temperature;BMP_pressure;BME280_temperature;BME280_humidity;BME280_pressure;Samples;Min_cycle;Max_cycle;Signal;HPM_P1;HPM_P2
2024/03/10 00:01:21;;;;;;;7.90;7.05;;;;;;;21.43;34.52;100231.50;5101830;27;20039;-69
2024/03/10 00:03:46;;;;;;;8.10;7.28;;;;;;;21.41;34.37;100233.53;5068465;27;20036;-68
2024/03/10 00:06:12;;;;;;;7.85;7.05;;;;;;;21.43;34.66;100234.13;5083015;28;20919;-69
2024/03/10 00:08:40;;;;;;;8.20;7.30;;;;;;;21.36;34.63;100226.22;5105472;27;20091;-69
2024/03/10 00:11:06;;;;;;;8.38;7.25;;;;;;;21.38;34.40;100242.69;5072067;27;20123;-69
2024/03/10 00:13:31;;;;;;;8.40;7.15;;;;;;;21.38;34.36;100245.34;5102442;27;20046;-68
2024/03/10 00:15:58;;;;;;;8.23;7.28;;;;;;;21.34;34.64;100244.09;5093629;27;20077;-69
2024/03/10 00:18:23;;;;;;;8.70;7.07;;;;;;;21.35;34.66;100236.97;5077399;28;20589;-69
2024/03/10 00:20:49;;;;;;;8.90;7.70;;;;;;;21.30;34.44;100234.94;5102331;27;20051;-68
2024/03/10 00:23:15;;;;;;;9.00;7.97;;;;;;;21.32;34.80;100232.09;5081292;27;20039;-68
2024/03/10 00:25:43;;;;;;;7.93;7.07;;;;;;;21.28;34.55;100228.22;5076211;27;20035;-69
2024/03/10 00:28:08;;;;;;;8.65;7.75;;;;;;;21.27;34.67;100224.75;5101521;27;20379;-68
2024/03/10 00:30:34;;;;;;;8.40;7.10;;;;;;;21.23;34.22;100228.81;5096309;27;20032;-67
2024/03/10 00:33:00;;;;;;;7.95;7.15;;;;;;;21.23;34.67;100228.00;5083183;28;20371;-66
2024/03/10 00:35:26;;;;;;;8.50;6.82;;;;;;;21.17;34.58;100224.31;5099457;27;20474;-69
2024/03/10 00:37:51;;;;;;;9.13;7.65;;;;;;;21.19;34.77;100230.25;5103773;27;20502;-66
2024/03/10 00:40:17;;;;;;;9.32;7.82;;;;;;;21.17;34.48;100232.25;5100776;27;20043;-67
2024/03/10 00:42:43;;;;;;;7.43;6.53;;;;;;;21.16;34.55;100230.63;5100277;27;20125;-68
2024/03/10 00:45:10;;;;;;;8.48;7.57;;;;;;;21.08;34.70;100228.19;5099796;27;20513;-68
2024/03/10 00:47:38;;;;;;;8.65;7.75;;;;;;;21.13;34.65;100233.69;5107901;27;20489;-69
2024/03/10 00:50:06;;;;;;;9.15;7.93;;;;;;;21.16;34.72;100243.03;5108718;27;20031;-69
2024/03/10 00:52:32;;;;;;;8.63;7.45;;;;;;;21.07;34.77;100235.31;5101486;27;20058;-68
2024/03/10 00:54:58;;;;;;;8.93;7.50;;;;;;;21.03;34.56;100225.34;5103577;27;20060;-69
2024/03/10 00:57:24;;;;;;;8.15;7.35;;;;;;;21.08;34.80;100239.59;5092033;27;20039;-68
2024/03/10 00:59:51;;;;;;;8.18;7.35;;;;;;;21.08;34.50;100242.22;5079799;27;20035;-68
2024/03/10 01:02:17;;;;;;;9.05;7.90;;;;;;;21.06;34.62;100236.34;5095576;27;20073;-69
2024/03/10 01:04:43;;;;;;;8.55;7.53;;;;;;;21.05;34.82;100240.00;5100143;27;20035;-68
2024/03/10 01:07:09;;;;;;;8.77;7.43;;;;;;;21.02;34.68;100231.66;5101627;27;20477;-69
2024/03/10 01:09:34;;;;;;;7.85;7.05;;;;;;;20.87;34.61;100212.47;5081798;28;20093;-69
2024/03/10 01:12:00;;;;;;;8.45;7.55;;;;;;;21.01;34.64;100232.66;5107187;27;20035;-69
2024/03/10 01:14:26;;;;;;;9.30;7.93;;;;;;;20.99;34.72;100222.25;5103658;27;20100;-68
2024/03/10 01:16:52;;;;;;;9.13;7.70;;;;;;;20.96;34.59;100220.00;5085475;27;20486;-69
2024/03/10 01:19:17;;;;;;;9.25;7.63;;;;;;;20.99;34.71;100224.91;5093898;27;20114;-68
2024/03/10 01:21:45;;;;;;;8.35;7.43;;;;;;;20.96;34.83;100222.66;5082758;27;20038;-69
2024/03/10 01:24:10;;;;;;;9.70;8.15;;;;;;;20.91;34.69;100219.00;5114886;27;20065;-69
2024/03/10 01:26:36;;;;;;;8.68;7.78;;;;;;;20.91;34.73;100221.66;5083132;27;20445;-68
2024/03/10 01:29:02;;;;;;;8.40;7.50;;;;;;;20.85;34.72;100207.41;5080128;28;20028;-69
2024/03/10 01:31:27;;;;;;;8.25;7.45;;;;;;;20.91;34.76;100219.81;5079303;28;20453;-69
2024/03/10 01:33:53;;;;;;;8.68;7.65;;;;;;;20.91;34.60;100213.69;5097799;27;20088;-69
2024/03/10 01:36:19;;;;;;;8.35;7.45;;;;;;;20.81;34.63;100212.25;5096174;27;20031;-69
2024/03/10 01:38:45;;;;;;;8.57;7.68;;;;;;;20.91;34.77;100221.66;5082070;28;20055;-69
2024/03/10 01:41:13;;;;;;;9.30;7.95;;;;;;;20.82;34.60;100221.00;5103218;27;20043;-69
2024/03/10 01:43:43;;;;;;;9.00;8.10;;;;;;;20.85;34.84;100225.91;5074254;27;20118;-69
2024/03/10 01:46:10;;;;;;;9.57;8.15;;;;;;;20.82;34.88;100231.59;5104664;27;20398;-69
2024/03/10 01:48:37;;;;;;;9.15;7.95;;;;;;;20.84;34.71;100240.16;5094627;27;20074;-68
2024/03/10 01:51:10;;;;;;;8.55;7.65;;;;;;;20.75;34.90;100223.66;5101182;27;20050;-69
2024/03/10 01:53:37;;;;;;;9.32;7.90;;;;;;;20.79;34.68;100219.56;5082487;28;20048;-69
2024/03/10 01:56:03;;;;;;;9.20;8.27;;;;;;;20.76;34.68;100205.94;5099243;27;20335;-69
2024/03/10 01:58:32;;;;;;;9.10;7.97;;;;;;;20.77;34.83;100213.66;5096306;27;20060;-68
2024/03/10 02:01:03;;;;;;;10.63;8.15;;;;;;;20.79;34.74;100209.00;5086503;28;20341;-69
2024/03/10 02:03:33;;;;;;;9.18;7.90;;;;;;;20.78;34.73;100215.31;5102663;27;20456;-69
2024/03/10 02:05:58;;;;;;;;;;;;;;;20.75;34.69;100220.19;5105001;27;20046;-68
2024/03/10 02:08:25;;;;;;;9.43;8.43;;;;;;;20.64;34.70;100202.25;5080155;28;19924;-68
2024/03/10 02:10:52;;;;;;;10.20;8.32;;;;;;;20.73;34.83;100223.03;5080670;27;20771;-68
2024/03/10 02:13:18;;;;;;;10.35;8.18;;;;;;;20.72;34.80;100216.13;5101239;27;20363;-68
2024/03/10 02:16:07;;;;;;;9.38;7.80;;;;;;;20.71;34.85;100213.66;5099975;27;20024;-68
2024/03/10 02:18:33;;;;;;;9.75;8.00;;;;;;;20.68;34.81;100217.53;5083062;27;20047;-67
2024/03/10 02:21:00;;;;;;;8.88;7.97;;;;;;;20.68;34.75;100204.31;5084458;28;20114;-68
2024/03/10 02:23:41;;;;;;;8.88;7.32;;;;;;;20.69;34.78;100197.19;5101146;27;20102;-68
2024/03/10 02:26:10;;;;;;;8.65;7.75;;;;;;;20.48;34.88;100164.59;5099365;27;20031;-68
2024/03/10 02:28:46;;;;;;;;;;;;;;;20.68;34.82;100198.19;5104918;27;20033;-68
2024/03/10 02:47:38;;;;;;;10.15;7.63;;;;;;;20.59;34.83;100205.50;5081873;28;20042;-68
2024/03/10 02:50:05;;;;;;;8.63;7.47;;;;;;;20.58;34.83;100209.16;5078068;28;20031;-69
2024/03/10 02:52:34;;;;;;;9.02;7.90;;;;;;;20.56;34.88;100215.66;5073195;28;20040;-68
2024/03/10 02:55:01;;;;;;;9.90;8.10;;;;;;;20.50;35.06;100207.50;5093805;28;20770;-67
2024/03/10 02:57:30;;;;;;;9.10;7.97;;;;;;;20.48;34.87;100208.72;5081400;28;20054;-68
2024/03/10 02:59:57;;;;;;;8.77;7.77;;;;;;;20.34;34.84;100178.75;5092308;28;20036;-68
2024/03/10 03:02:24;;;;;;;9.20;7.28;;;;;;;20.37;34.95;100190.75;5082209;28;20047;-68
2024/03/10 03:04:49;;;;;;;9.30;7.85;;;;;;;20.50;34.79;100196.13;5081429;28;20529;-68
2024/03/10 03:07:18;;;;;;;9.13;7.75;;;;;;;20.51;34.80;100198.56;5103317;28;20085;-69
2024/03/10 03:09:47;;;;;;;9.45;7.88;;;;;;;20.49;34.88;100197.94;5093792;28;20032;-68
2024/03/10 03:12:13;;;;;;;9.77;7.68;;;;;;;20.45;34.94;100188.75;5077045;28;20054;-68
2024/03/10 03:14:39;;;;;;;9.43;8.00;;;;;;;20.41;35.03;100190.19;5094012;28;20028;-69
2024/03/10 03:17:05;;;;;;;9.77;7.90;;;;;;;20.47;34.85;100201.81;5096572;28;20077;-69
2024/03/10 03:19:36;;;;;;;8.43;7.43;;;;;;;20.46;34.91;100192.22;5100941;28;20035;-68
2024/03/10 03:22:04;;;;;;;8.45;7.63;;;;;;;20.30;34.80;100169.59;5082238;28;20035;-69
2024/03/10 03:24:31;;;;;;;10.55;8.27;;;;;;;20.44;34.82;100199.53;5080713;28;20638;-69
2024/03/10 03:26:56;;;;;;;9.50;8.50;;;;;;;20.43;34.99;100200.56;5080859;28;20786;-69
2024/03/10 03:29:23;;;;;;;9.05;7.70;;;;;;;20.23;35.00;100164.25;5099003;28;20032;-69
2024/03/10 03:31:49;;;;;;;9.07;7.45;;;;;;;20.43;34.94;100196.06;5096439;28;20545;-69
2024/03/10 03:34:18;;;;;;;9.02;7.82;;;;;;;20.44;34.98;100197.72;5099167;28;20123;-67
2024/03/10 03:36:44;;;;;;;9.05;7.63;;;;;;;20.45;35.08;100198.53;5085535;28;20533;-66
2024/03/10 03:39:09;;;;;;;8.20;7.35;;;;;;;20.37;35.01;100194.22;5068216;28;20040;-67
2024/03/10 03:41:35;;;;;;;8.05;7.25;;;;;;;20.27;34.75;100175.25;5101845;28;20065;-66
2024/03/10 03:44:04;;;;;;;9.13;7.50;;;;;;;20.40;34.96;100201.75;5081912;28;20036;-67
2024/03/10 03:46:30;;;;;;;9.05;7.53;;;;;;;20.02;35.02;100140.59;5095203;28;20036;-67
2024/03/10 03:48:56;;;;;;;9.05;7.40;;;;;;;20.35;34.97;100183.00;5079671;28;20044;-66
2024/03/10 03:51:21;;;;;;;8.68;7.57;;;;;;;20.46;34.90;100185.09;5078046;28;20054;-67
2024/03/10 03:53:47;;;;;;;9.85;8.02;;;;;;;20.47;34.81;100186.75;5069888;28;20083;-67
2024/03/10 03:56:12;;;;;;;9.35;7.82;;;;;;;20.45;34.91;100190.59;5065798;28;20067;-67
2024/03/10 03:58:38;;;;;;;10.02;8.23;;;;;;;20.38;34.85;100179.97;5092492;28;20040;-67
2024/03/10 04:01:04;;;;;;;9.27;7.70;;;;;;;20.45;34.92;100198.53;5094558;28;20121;-67
2024/03/10 04:03:32;;;;;;;9.38;7.70;;;;;;;20.43;35.06;100197.91;5102138;27;20483;-67
2024/03/10 04:05:59;;;;;;;8.85;7.35;;;;;;;20.41;34.92;100186.72;5108402;27;20042;-67
2024/03/10 04:08:24;;;;;;;9.00;8.07;;;;;;;20.41;34.97;100179.59;5098441;27;20039;-67
2024/03/10 04:10:50;;;;;;;9.20;7.85;;;;;;;20.43;34.94;100185.50;5078270;27;20485;-67
2024/03/10 04:13:16;;;;;;;9.75;8.18;;;;;;;20.21;34.92;100150.41;5083952;27;20053;-67
2024/03/10 04:15:42;;;;;;;10.70;8.25;;;;;;;20.23;35.00;100158.16;5068437;28;20040;-67
2024/03/10 04:18:08;;;;;;;9.05;7.68;;;;;;;20.37;35.08;100181.00;5105497;27;20031;-67
2024/03/10 04:20:35;;;;;;;9.73;7.88;;;;;;;20.33;34.95;100182.41;5088084;27;20043;-67
2024/03/10 04:23:05;;;;;;;9.43;7.90;;;;;;;20.33;35.01;100181.59;5099536;27;20157;-67
2024/03/10 04:25:32;;;;;;;8.70;7.28;;;;;;;20.36;35.09;100195.22;5081638;28;20050;-67
2024/03/10 04:27:58;;;;;;;8.77;7.18;;;;;;;20.38;35.08;100198.47;5102280;27;20043;-67
2024/03/10 04:30:23;;;;;;;9.25;7.80;;;;;;;20.35;34.95;100198.06;5098668;27;20028;-67
2024/03/10 04:32:49;;;;;;;11.05;8.38;;;;;;;20.39;34.99;100201.94;5098860;27;20038;-67
2024/03/10 04:35:16;;;;;;;9.38;7.95;;;;;;;20.17;35.01;100165.06;5102190;27;20133;-66
2024/03/10 04:37:42;;;;;;;8.55;7.20;;;;;;;20.26;34.99;100168.31;5077803;28;20081;-66
2024/03/10 04:40:12;;;;;;;8.30;7.40;;;;;;;20.31;35.05;100179.16;5084030;28;20040;-67
2024/03/10 04:42:39;;;;;;;9.65;8.35;;;;;;;20.33;34.93;100177.13;5080979;28;20151;-67
2024/03/10 04:45:06;;;;;;;8.32;7.32;;;;;;;20.32;34.98;100191.34;5077749;28;20071;-66
2024/03/10 04:47:33;;;;;;;9.50;7.70;;;;;;;20.37;35.00;100190.75;5077150;28;20043;-67
2024/03/10 04:50:01;;;;;;;8.90;7.57;;;;;;;20.32;34.89;100175.47;5098805;27;20649;-67
2024/03/10 04:52:27;;;;;;;9.80;7.82;;;;;;;20.29;34.94;100170.59;5078199;28;20502;-67
2024/03/10 04:54:52;;;;;;;9.85;7.85;;;;;;;20.40;34.93;100193.00;5063775;28;20035;-67
2024/03/10 04:57:19;;;;;;;9.25;8.27;;;;;;;20.28;34.86;100174.22;5077982;28;20099;-67
2024/03/10 04:59:45;;;;;;;9.48;7.90;;;;;;;20.30;35.01;100189.91;5078439;28;20043;-67
2024/03/10 05:02:11;;;;;;;9.35;7.93;;;;;;;20.41;34.78;100211.34;5092263;27;20639;-67
2024/03/10 05:04:37;;;;;;;9.35;7.63;;;;;;;20.17;34.91;100167.69;5083540;28;20036;-67
2024/03/10 05:07:03;;;;;;;9.18;7.93;;;;;;;20.30;34.99;100174.88;5080662;28;20067;-67
2024/03/10 05:09:28;;;;;;;9.43;8.15;;;;;;;20.37;35.05;100194.22;5075023;28;20051;-66
2024/03/10 05:11:54;;;;;;;10.25;8.40;;;;;;;20.38;34.96;100187.91;5080969;28;20040;-67
2024/03/10 05:14:19;;;;;;;9.85;7.72;;;;;;;20.35;35.07;100185.66;5080401;28;20033;-67
2024/03/10 05:16:45;;;;;;;9.20;7.80;;;;;;;20.20;34.74;100150.63;5075102;28;20078;-67
2024/03/10 05:19:11;;;;;;;9.55;8.05;;;;;;;20.14;35.04;100144.31;5076160;28;20036;-67
2024/03/10 05:21:36;;;;;;;9.73;8.30;;;;;;;20.25;35.00;100157.94;5078977;28;20044;-67
2024/03/10 05:24:02;;;;;;;10.23;8.30;;;;;;;20.21;34.99;100161.00;5077493;28;20126;-67
2024/03/10 05:26:27;;;;;;;8.90;8.00;;;;;;;20.27;35.17;100163.84;5086058;28;20464;-67
2024/03/10 05:28:53;;;;;;;8.52;7.57;;;;;;;20.33;35.13;100178.94;5086630;28;20111;-67
2024/03/10 05:31:30;;;;;;;10.43;8.75;;;;;;;20.18;35.15;100155.28;5061516;28;20616;-68
2024/03/10 05:33:57;;;;;;;9.85;8.10;;;;;;;20.17;35.14;100151.84;5086525;28;20047;-67
2024/03/10 05:36:24;;;;;;;9.75;8.05;;;;;;;20.31;35.08;100160.63;5086222;28;20039;-66
2024/03/10 05:38:50;;;;;;;10.35;8.25;;;;;;;20.24;35.09;100149.22;5078320;28;20040;-67
2024/03/10 05:41:16;;;;;;;9.30;7.72;;;;;;;20.17;35.13;100141.25;5075287;28;20429;-67
2024/03/10 05:43:44;;;;;;;8.65;7.70;;;;;;;20.03;35.17;100120.25;5074944;28;20040;-67
2024/03/10 05:46:12;;;;;;;8.75;7.78;;;;;;;20.16;35.25;100134.34;5092631;27;20032;-68
2024/03/10 05:48:41;;;;;;;8.95;8.05;;;;;;;20.26;35.08;100144.53;5082007;28;20036;-67
2024/03/10 05:51:12;;;;;;;8.85;7.70;;;;;;;20.25;35.30;100136.81;5074505;28;20063;-67
2024/03/10 05:53:38;;;;;;;8.93;7.93;;;;;;;20.25;35.23;100140.25;5076187;28;20036;-67
2024/03/10 05:56:04;;;;;;;10.25;7.55;;;;;;;20.17;35.19;100129.88;5080295;28;20521;-67
2024/03/10 05:58:34;;;;;;;9.43;7.97;;;;;;;20.29;35.22;100146.81;5071972;28;20063;-67
2024/03/10 06:01:01;;;;;;;9.10;8.07;;;;;;;20.15;35.31;100129.25;5082006;28;20087;-66
2024/03/10 06:03:27;;;;;;;9.63;8.20;;;;;;;20.23;35.39;100143.09;5075059;28;20044;-67
2024/03/10 06:05:53;;;;;;;9.90;8.48;;;;;;;20.21;35.36;100152.25;5073808;28;20032;-67
2024/03/10 06:08:19;;;;;;;9.38;8.00;;;;;;;20.26;35.23;100160.41;5077805;28;20035;-67
2024/03/10 06:10:46;;;;;;;9.05;8.05;;;;;;;20.20;35.36;100153.25;5077571;28;20062;-67
2024/03/10 06:13:13;;;;;;;9.23;8.00;;;;;;;20.19;35.55;100149.81;5084995;28;20500;-67
2024/03/10 06:15:39;;;;;;;9.68;8.25;;;;;;;19.72;35.46;100066.06;5080586;28;20028;-67
2024/03/10 06:18:31;;;;;;;10.98;8.88;;;;;;;20.26;35.44;100147.19;5079625;28;20337;-66
2024/03/10 06:26:24;;;;;;;10.13;7.72;;;;;;;20.23;35.56;100160.78;5074498;28;20474;-67
2024/03/10 06:28:50;;;;;;;9.82;8.10;;;;;;;20.22;35.19;100153.88;5077477;28;20066;-68
2024/03/10 06:31:17;;;;;;;9.02;8.00;;;;;;;20.12;35.40;100146.34;5074935;28;20063;-67
2024/03/10 06:33:44;;;;;;;9.30;8.05;;;;;;;20.07;35.54;100140.81;5076920;28;20169;-68
2024/03/10 06:36:10;;;;;;;10.60;8.82;;;;;;;20.20;35.51;100162.00;5082514;28;20032;-68
2024/03/10 06:38:38;;;;;;;9.30;8.35;;;;;;;20.20;35.51;100163.84;5089955;27;20086;-68
2024/03/10 06:41:11;;;;;;;9.45;7.93;;;;;;;20.19;35.48;100170.97;5102470;27;20051;-68
2024/03/10 06:43:37;;;;;;;9.13;7.97;;;;;;;20.20;35.45;100171.78;5103345;27;20039;-68
2024/03/10 06:46:04;;;;;;;8.90;7.68;;;;;;;20.14;35.43;100168.09;5108610;27;20474;-68
2024/03/10 06:48:32;;;;;;;9.13;8.23;;;;;;;19.91;35.55;100135.84;5084276;28;20125;-68
2024/03/10 06:50:58;;;;;;;9.68;8.48;;;;;;;20.18;35.52;100182.53;5107125;28;20572;-67
2024/03/10 06:53:24;;;;;;;9.57;8.57;;;;;;;20.14;35.48;100177.84;5082388;28;20043;-68
2024/03/10 06:55:50;;;;;;;10.55;8.43;;;;;;;20.19;35.57;100188.66;5098613;28;20036;-68
2024/03/10 06:58:15;;;;;;;9.85;7.82;;;;;;;20.13;35.56;100184.16;5106818;28;20053;-68
2024/03/10 07:00:41;;;;;;;9.20;7.97;;;;;;;20.08;35.55;100168.88;5099444;28;20144;-67
2024/03/10 07:03:07;;;;;;;9.20;8.18;;;;;;;20.16;35.51;100189.03;5077541;28;20054;-67
2024/03/10 07:05:33;;;;;;;9.80;8.18;;;;;;;20.12;35.56;100178.06;5079784;28;20046;-68
2024/03/10 07:08:00;;;;;;;10.02;8.75;;;;;;;20.06;35.51;100162.97;5098766;28;20032;-68
2024/03/10 07:10:27;;;;;;;9.95;8.57;;;;;;;20.02;35.60;100145.88;5097647;28;20050;-68
2024/03/10 07:12:53;;;;;;;9.38;8.27;;;;;;;19.95;35.49;100141.59;5101540;28;20050;-69
2024/03/10 07:15:18;;;;;;;9.88;8.13;;;;;;;20.08;35.67;100160.13;5067022;28;20390;-68
2024/03/10 07:17:44;;;;;;;10.25;8.40;;;;;;;20.14;35.55;100164.66;5097531;28;20375;-69
2024/03/10 07:20:10;;;;;;;10.52;8.60;;;;;;;20.09;35.43;100152.00;5108381;28;20028;-68
2024/03/10 07:22:38;;;;;;;9.80;8.70;;;;;;;20.19;35.52;100165.66;5082749;28;20162;-68
2024/03/10 07:25:08;;;;;;;10.48;8.45;;;;;;;20.36;35.26;100162.69;5105833;28;20050;-68
2024/03/10 07:27:34;;;;;;;10.63;8.85;;;;;;;20.66;35.10;100156.06;5101902;28;20027;-68
2024/03/10 07:30:04;;;;;;;9.25;8.05;;;;;;;21.09;34.25;100153.03;5100017;28;20032;-68
2024/03/10 07:32:33;;;;;;;9.60;8.05;;;;;;;21.30;33.83;100146.75;5075845;28;20092;-68
2024/03/10 07:35:00;;;;;;;10.02;8.40;;;;;;;21.49;33.83;100150.38;5098336;28;20445;-68
2024/03/10 07:37:26;;;;;;;8.90;8.00;;;;;;;21.42;33.75;100151.22;5077599;28;20176;-68
2024/03/10 07:39:53;;;;;;;9.10;7.88;;;;;;;21.35;34.30;100153.03;5111138;27;20100;-68
2024/03/10 07:42:19;;;;;;;8.80;7.50;;;;;;;21.28;34.05;100154.88;5101812;27;20039;-68
2024/03/10 07:44:45;;;;;;;9.48;8.23;;;;;;;21.18;34.19;100153.63;5083100;28;22317;-68
2024/03/10 07:47:11;;;;;;;9.27;8.15;;;;;;;21.03;34.50;100144.09;5080126;27;20036;-68
2024/03/10 07:49:37;;;;;;;10.57;8.75;;;;;;;21.13;34.51;100170.13;5081041;27;20136;-64
2024/03/10 07:52:04;;;;;;;10.95;9.05;;;;;;;21.02;35.82;100176.06;5094962;27;20043;-68
2024/03/10 07:54:31;;;;;;;9.93;8.63;;;;;;;21.02;35.70;100168.94;5069431;27;20110;-66
2024/03/10 07:56:56;;;;;;;9.05;8.05;;;;;;;21.03;35.83;100164.44;5093193;27;20146;-66
2024/03/10 07:59:22;;;;;;;9.95;8.27;;;;;;;20.94;35.73;100150.59;5097757;27;20028;-66
2024/03/10 08:01:51;;;;;;;10.55;8.80;;;;;;;20.90;35.74;100146.72;5073106;28;20378;-66
2024/03/10 08:04:20;;;;;;;9.50;8.00;;;;;;;20.95;35.73;100162.81;5078507;27;20486;-67
2024/03/10 08:06:46;;;;;;;9.95;8.13;;;;;;;20.92;35.59;100159.75;5081435;27;20111;-67
2024/03/10 08:09:15;;;;;;;9.80;8.20;;;;;;;20.89;35.58;100155.69;5092516;27;20539;-67
2024/03/10 08:11:42;;;;;;;9.63;8.45;;;;;;;20.87;35.51;100162.19;5099507;27;20039;-67
2024/03/10 08:14:08;;;;;;;10.55;8.50;;;;;;;20.83;35.64;100171.56;5094614;27;20440;-66
2024/03/10 08:16:34;;;;;;;9.65;8.60;;;;;;;20.80;35.61;100164.81;5097398;27;20031;-65
2024/03/10 08:19:00;;;;;;;9.52;8.25;;;;;;;20.84;35.63;100174.00;5078313;28;20390;-66
2024/03/10 08:21:26;;;;;;;10.60;8.80;;;;;;;20.75;35.83;100168.09;5096575;27;20046;-66
2024/03/10 08:23:52;;;;;;;9.68;8.20;;;;;;;20.81;35.56;100183.13;5092346;28;20039;-67
2024/03/10 08:26:18;;;;;;;10.40;8.27;;;;;;;20.80;35.65;100188.63;5094703;27;20039;-67
2024/03/10 08:28:44;;;;;;;9.75;8.65;;;;;;;20.80;35.77;100183.34;5096464;27;20031;-67
2024/03/10 08:31:12;;;;;;;10.02;8.60;;;;;;;20.81;35.62;100191.06;5089417;27;20043;-67
2024/03/10 08:33:38;;;;;;;11.68;9.48;;;;;;;20.79;35.60;100194.94;5077682;27;20040;-65
2024/03/10 08:36:04;;;;;;;10.00;8.27;;;;;;;20.79;35.71;100206.34;5073050;28;20064;-65
2024/03/10 08:38:30;;;;;;;9.77;8.52;;;;;;;20.72;35.55;100200.25;5093533;27;20155;-65
2024/03/10 08:40:57;;;;;;;10.38;8.88;;;;;;;20.69;35.76;100194.53;5084104;27;20096;-67
2024/03/10 08:43:23;;;;;;;9.73;8.68;;;;;;;20.73;35.58;100206.34;5080476;27;20040;-66
2024/03/10 08:45:49;;;;;;;10.35;8.55;;;;;;;20.76;35.46;100204.09;5080750;27;20038;-67
2024/03/10 08:48:15;;;;;;;12.23;9.32;;;;;;;20.73;35.66;100198.41;5079754;27;20040;-67
2024/03/10 08:50:42;;;;;;;10.25;9.05;;;;;;;20.70;35.46;100193.53;5104222;27;20107;-67
2024/03/10 08:53:08;;;;;;;10.60;9.00;;;;;;;20.87;35.29;100192.13;5083073;27;20059;-66
2024/03/10 08:55:35;;;;;;;9.57;8.32;;;;;;;21.03;35.30;100186.44;5091756;27;20035;-67
2024/03/10 08:58:03;;;;;;;11.15;8.82;;;;;;;21.11;35.18;100183.59;5079338;28;20051;-67
2024/03/10 09:00:30;;;;;;;9.73;8.68;;;;;;;21.17;35.02;100178.47;5094006;27;20031;-67
2024/03/10 09:02:56;;;;;;;10.32;8.93;;;;;;;21.20;35.05;100170.16;5097843;27;20054;-67
2024/03/10 09:05:23;;;;;;;10.20;8.93;;;;;;;21.17;34.83;100165.25;5079839;28;22075;-67
2024/03/10 09:07:50;;;;;;;12.48;9.05;;;;;;;21.17;34.78;100154.66;5103895;27;20047;-67
2024/03/10 09:10:16;;;;;;;10.02;8.95;;;;;;;21.08;35.04;100160.16;5081791;27;20023;-67
2024/03/10 09:12:46;;;;;;;10.40;8.68;;;;;;;21.11;35.11;100169.53;5064291;27;20169;-67
2024/03/10 09:15:12;;;;;;;10.68;9.05;;;;;;;21.07;35.04;100171.78;5099424;27;20104;-66
2024/03/10 09:17:41;;;;;;;10.60;9.40;;;;;;;21.08;35.22;100172.59;5096852;27;20491;-66
2024/03/10 09:20:12;;;;;;;10.30;9.00;;;;;;;21.03;35.14;100167.09;5094742;27;20344;-67
2024/03/10 09:22:42;;;;;;;10.18;8.88;;;;;;;21.02;35.22;100165.47;5099378;27;20071;-66
2024/03/10 09:25:20;;;;;;;;;;;;;;;21.04;35.27;100172.19;5096688;27;20390;-67
2024/03/10 09:27:51;;;;;;;10.70;9.60;;;;;;;21.04;35.28;100169.53;5101883;27;19916;-68
2024/03/10 09:30:21;;;;;;;10.60;9.05;;;;;;;21.02;35.67;100165.47;5078482;28;20100;-67
2024/03/10 09:32:50;;;;;;;11.40;9.38;;;;;;;21.00;35.41;100180.72;5094081;27;20126;-67
2024/03/10 09:35:24;;;;;;;9.60;8.60;;;;;;;20.97;35.63;100175.84;5097993;27;20105;-67
2024/03/10 09:37:51;;;;;;;10.05;8.38;;;;;;;20.98;35.34;100172.16;5072499;28;20463;-66
2024/03/10 09:40:17;;;;;;;9.73;8.73;;;;;;;20.99;35.55;100176.44;5074666;28;20063;-66
2024/03/10 09:42:43;;;;;;;11.23;9.30;;;;;;;20.93;35.48;100164.03;5077802;28;20364;-67
2024/03/10 09:45:19;;;;;;;10.35;9.25;;;;;;;20.90;35.41;100159.97;5079829;28;20061;-66
2024/03/10 09:47:48;;;;;;;11.60;9.82;;;;;;;20.98;35.29;100174.81;5073392;28;20042;-67
2024/03/10 09:50:22;;;;;;;11.35;10.07;;;;;;;20.86;35.56;100156.09;5072632;28;20039;-66
2024/03/10 09:52:52;;;;;;;11.05;9.52;;;;;;;20.92;35.44;100152.63;5077575;28;20395;-67
2024/03/10 09:55:20;;;;;;;11.15;9.20;;;;;;;20.99;35.60;100160.56;5072993;28;20036;-67
2024/03/10 09:57:53;;;;;;;10.73;9.40;;;;;;;20.97;35.39;100136.94;5075179;28;20062;-68
2024/03/10 10:00:27;;;;;;;10.77;9.07;;;;;;;21.06;35.34;100162.22;5068139;28;20043;-66
2024/03/10 10:03:02;;;;;;;11.75;9.55;;;;;;;21.07;35.25;100144.50;5076821;28;20043;-67
2024/03/10 10:05:32;;;;;;;11.02;9.82;;;;;;;21.08;35.20;100148.78;5072629;28;20024;-66
2024/03/10 10:07:57;;;;;;;;;;;;;;;21.08;35.44;100144.28;5070335;28;20078;-66
2024/03/10 10:10:23;;;;;;;12.88;9.95;;;;;;;21.06;35.52;100145.50;5076110;28;20000;-66
2024/03/10 10:12:49;;;;;;;10.80;9.50;;;;;;;21.10;35.55;100136.13;5069936;28;22638;-66
2024/03/10 10:15:21;;;;;;;12.00;9.98;;;;;;;21.11;35.37;100141.22;5072894;28;20044;-67
2024/03/10 10:17:57;;;;;;;10.63;9.38;;;;;;;21.21;35.67;100121.47;5072525;28;20467;-68
2024/03/10 10:20:25;;;;;;;13.32;10.35;;;;;;;21.12;35.67;100099.69;5074303;28;20046;-68
2024/03/10 10:22:53;;;;;;;11.43;9.73;;;;;;;21.17;35.50;100114.94;5070289;28;20043;-66
2024/03/10 10:25:18;;;;;;;10.90;9.50;;;;;;;21.13;35.62;100110.06;5071732;28;20032;-67
2024/03/10 10:27:52;;;;;;;10.32;9.23;;;;;;;21.12;35.46;100099.69;5073646;28;20357;-67
2024/03/10 10:30:23;;;;;;;11.85;9.25;;;;;;;21.13;35.46;100107.41;5071307;28;20485;-68
2024/03/10 10:33:00;;;;;;;11.57;9.73;;;;;;;21.08;35.44;100094.00;5076557;28;20040;-68
2024/03/10 10:35:27;;;;;;;12.13;10.82;;;;;;;21.14;35.18;100089.69;5026727;28;21754;-63
2024/03/10 10:37:53;;;;;;;13.75;10.77;;;;;;;21.07;35.41;100097.66;5089289;27;20167;-63
2024/03/10 10:40:20;;;;;;;11.40;10.20;;;;;;;21.14;35.47;100089.69;5096041;27;20035;-63
2024/03/10 10:42:49;;;;;;;12.43;10.48;;;;;;;21.16;35.12;100097.44;5075971;28;20163;-63
2024/03/10 10:45:16;;;;;;;13.88;10.55;;;;;;;21.17;35.36;100091.94;5087249;28;20138;-62
2024/03/10 10:47:42;;;;;;;12.10;9.82;;;;;;;21.32;35.28;100091.72;5089666;28;20040;-62
2024/03/10 10:50:14;;;;;;;11.63;10.10;;;;;;;21.44;35.24;100091.91;5041263;28;20051;-63
2024/03/10 10:52:42;;;;;;;11.10;10.00;;;;;;;21.70;35.01;100099.78;5088355;28;20047;-64
2024/03/10 10:55:10;;;;;;;10.35;9.27;;;;;;;21.97;34.77;100103.97;5081953;28;20093;-64
2024/03/10 10:57:44;;;;;;;10.13;8.80;;;;;;;22.42;33.77;100089.84;5039607;28;20046;-63
2024/03/10 11:00:27;;;;;;;11.50;9.27;;;;;;;23.41;32.64;100097.00;5049582;28;20032;-63
2024/03/10 11:03:17;;;;;;;10.65;9.50;;;;;;;24.46;31.23;100094.91;5095299;28;20656;-62
2024/03/10 11:06:08;;;;;;;9.73;8.73;;;;;;;25.14;30.18;100090.97;5035504;28;20036;-64
2024/03/10 11:08:39;;;;;;;10.23;9.10;;;;;;;25.21;30.13;100083.66;5088982;28;20047;-61
2024/03/10 11:11:05;;;;;;;10.90;9.02;;;;;;;25.25;30.17;100076.81;5034882;28;20119;-63
2024/03/10 11:13:32;;;;;;;10.23;8.77;;;;;;;25.15;30.49;100082.72;5081960;27;20138;-66
2024/03/10 11:16:09;;;;;;;9.52;8.52;;;;;;;24.99;30.54;100086.06;5050455;27;20061;-60
2024/03/10 11:18:38;;;;;;;10.27;8.80;;;;;;;24.68;31.23;100088.00;5080035;27;20363;-61
2024/03/10 11:21:13;;;;;;;10.85;9.50;;;;;;;24.46;31.66;100099.41;5074642;27;21326;-62
2024/03/10 11:23:45;;;;;;;10.38;9.02;;;;;;;24.14;32.16;100101.47;5047082;27;20486;-63
2024/03/10 11:26:17;;;;;;;12.98;9.85;;;;;;;23.52;32.37;100101.59;5096284;27;20035;-63
2024/03/10 11:28:48;;;;;;;11.02;9.57;;;;;;;23.52;33.21;100115.69;5047821;27;20042;-64
2024/03/10 11:31:23;;;;;;;12.13;9.80;;;;;;;23.46;33.61;100116.56;5094975;27;20035;-64
2024/03/10 11:33:55;;;;;;;13.80;9.07;;;;;;;23.39;33.70;100112.38;5047749;27;20046;-65
2024/03/10 11:36:22;;;;;;;11.75;8.98;;;;;;;23.27;33.77;100101.63;5093782;27;20059;-62
2024/03/10 11:38:49;;;;;;;11.55;9.60;;;;;;;23.30;33.83;100111.00;5043557;27;20058;-65
2024/03/10 11:41:17;;;;;;;;;;;;;;;23.23;34.12;100111.09;5095090;27;20108;-62
2024/03/10 11:43:44;;;;;;;10.50;9.40;;;;;;;23.21;34.12;100103.34;5081953;27;19919;-60
2024/03/10 11:46:24;;;;;;;10.35;9.25;;;;;;;23.21;34.15;100108.66;5090573;27;20043;-61
2024/03/10 11:48:57;;;;;;;10.55;9.45;;;;;;;23.02;34.18;100103.53;5035686;27;20402;-64